Rechercher aéroport 
image banner adimage banner adimage banner ad
image banner ad

7PA4 - Orson Field

Situé à Orson, United States

ICAO - 7PA4, IATA -

Données fournies par Airmate  

Information générale

Coordonnées: N41°50'32" W75°26'11"
Élévation : 2100 feet MSL.
Variation magnétique : -12° East
Voir autres Aéroports à Pennsylvania

Données opérationnelles

Special qualification required
Heure actuelle UTC:
Heure actuelle locale:
Météo à : KMSV - Sullivan County Intl ( 55 km )
METAR: KMSV 152238Z AUTO 32010G17KT 10SM BKN019 OVC060 17/13 A2982 RMK AO2
Voir NOTAMs / SUP AIP / TFR affectant cet aéroport [VIEW]
Fréquences de communication: [VIEW]

Pistes:

Identifiant RWYQFULongueur (ft)Largeur (ft)SurfaceLDA (ft)
031700100GRASS
211700100GRASS

Coordonnées de l'aéroport

Adresse: Orson United States

Vue satellite de 7PA4